Time;durP1;ratioP1;P1;durP2;ratioP2;P2;SDS_P1;SDS_P2;PMS_P1;PMS_P2;Temp;Humidity;BMP_temperature;BMP_pressure;BME280_temperature;BME280_humidity;BME280_pressure;Samples;Min_cycle;Max_cycle;Signal;HPM_P1;HPM_P2
2022/10/25 00:01:31;;;;;;;72.07;69.05;;;;;;;10.87;100.00;100872.44;5058176;28;20036;-74
2022/10/25 00:03:57;;;;;;;72.43;69.45;;;;;;;10.90;100.00;100870.31;5057778;28;20086;-73
2022/10/25 00:06:23;;;;;;;72.00;68.97;;;;;;;10.93;100.00;100866.56;5058085;28;20481;-73
2022/10/25 00:08:49;;;;;;;68.00;64.53;;;;;;;10.92;100.00;100867.53;5059089;28;20472;-73
2022/10/25 00:11:23;;;;;;;70.53;67.65;;;;;;;10.93;100.00;100863.91;5055830;28;20036;-73
2022/10/25 00:13:50;;;;;;;74.82;71.47;;;;;;;10.83;100.00;100852.59;5058610;28;20036;-73
2022/10/25 00:16:18;;;;;;;76.57;72.95;;;;;;;10.98;100.00;100877.50;5040196;28;20021;-73
2022/10/25 00:18:44;;;;;;;67.93;64.90;;;;;;;11.00;100.00;100870.25;5058645;28;20029;-74
2022/10/25 00:21:09;;;;;;;75.22;71.90;;;;;;;11.02;100.00;100872.75;5058168;28;20400;-73
2022/10/25 00:23:35;;;;;;;69.88;66.53;;;;;;;10.97;100.00;100859.16;5058501;28;20396;-73
2022/10/25 00:26:02;;;;;;;83.10;79.75;;;;;;;11.07;100.00;100871.28;5056705;28;20033;-72
2022/10/25 00:28:27;;;;;;;77.15;73.65;;;;;;;10.99;100.00;100863.28;5064127;28;20247;-73
2022/10/25 00:31:11;;;;;;;91.43;87.85;;;;;;;11.07;100.00;100875.75;5025426;28;20495;-73
2022/10/25 00:33:37;;;;;;;76.60;73.10;;;;;;;11.05;100.00;100872.44;5058084;28;20361;-74
2022/10/25 00:36:13;;;;;;;68.43;65.72;;;;;;;11.03;100.00;100869.94;5058075;28;20086;-73
2022/10/25 00:38:39;;;;;;;77.43;73.97;;;;;;;11.02;100.00;100870.09;5064623;28;20032;-74
2022/10/25 00:41:05;;;;;;;83.43;79.78;;;;;;;10.93;100.00;100853.34;5058011;28;20413;-73
2022/10/25 00:43:42;;;;;;;73.75;70.68;;;;;;;11.02;100.00;100884.13;5058007;28;20477;-74
2022/10/25 00:46:18;;;;;;;72.50;69.43;;;;;;;11.03;100.00;100883.13;5055590;28;20029;-73
2022/10/25 00:49:11;;;;;;;79.53;76.28;;;;;;;10.96;100.00;100874.16;5057996;28;20492;-73
2022/10/25 00:51:45;;;;;;;73.07;69.95;;;;;;;10.96;100.00;100884.72;5056577;28;20055;-73
2022/10/25 00:54:15;;;;;;;72.45;69.30;;;;;;;10.96;100.00;100879.44;5057644;28;20032;-73
2022/10/25 00:56:44;;;;;;;70.05;66.90;;;;;;;11.02;100.00;100892.06;5057259;28;20531;-73
2022/10/25 00:59:13;;;;;;;96.55;92.35;;;;;;;10.88;100.00;100872.28;5057704;28;20041;-73
2022/10/25 01:01:40;;;;;;;74.07;70.32;;;;;;;10.90;100.00;100885.31;5058097;28;20048;-73
2022/10/25 01:04:09;;;;;;;70.85;67.50;;;;;;;10.84;100.00;100870.09;5057250;28;20440;-73
2022/10/25 01:06:40;;;;;;;68.22;65.50;;;;;;;11.03;100.00;100896.34;5057294;28;20029;-74
2022/10/25 01:09:08;;;;;;;72.57;69.30;;;;;;;11.03;100.00;100892.88;5057146;28;20119;-74
2022/10/25 01:11:36;;;;;;;75.38;72.30;;;;;;;10.97;100.00;100888.19;5057644;28;20434;-74
2022/10/25 01:14:03;;;;;;;95.50;90.65;;;;;;;10.95;100.00;100895.44;5025059;28;20056;-74
2022/10/25 01:16:40;;;;;;;80.57;77.13;;;;;;;10.93;100.00;100892.13;5063825;28;20020;-74
2022/10/25 01:19:43;;;;;;;71.30;67.82;;;;;;;11.00;100.00;100901.94;5057362;28;20037;-74
2022/10/25 01:22:14;;;;;;;75.22;71.82;;;;;;;10.99;100.00;100916.09;5034140;28;20047;-73
2022/10/25 01:25:01;;;;;;;83.57;79.90;;;;;;;11.03;100.00;100917.47;5067494;28;20563;-74
2022/10/25 01:27:47;;;;;;;70.07;66.55;;;;;;;11.06;100.00;100922.47;5060368;28;20070;-74
2022/10/25 01:30:22;;;;;;;72.97;70.07;;;;;;;11.02;100.00;100910.53;5061388;28;20036;-73
2022/10/25 01:33:19;;;;;;;82.88;79.65;;;;;;;11.06;100.00;100917.19;5061951;28;20020;-73
2022/10/25 01:36:05;;;;;;;72.70;69.75;;;;;;;11.20;100.00;100922.91;5061193;28;20059;-74
2022/10/25 01:39:00;;;;;;;71.07;67.50;;;;;;;11.24;100.00;100930.38;5061727;28;20557;-74
2022/10/25 01:41:49;;;;;;;68.45;64.47;;;;;;;11.31;100.00;100918.22;5062267;28;20036;-74
2022/10/25 01:44:43;;;;;;;79.32;74.82;;;;;;;11.40;100.00;100929.66;5061612;28;20029;-74
2022/10/25 01:47:23;;;;;;;76.72;73.50;;;;;;;11.42;100.00;100922.41;5061023;28;20024;-73
2022/10/25 01:49:54;;;;;;;104.07;99.20;;;;;;;11.47;100.00;100925.41;5067833;28;20041;-73
2022/10/25 01:52:21;;;;;;;73.28;70.03;;;;;;;11.51;100.00;100941.81;5060192;28;20047;-72
2022/10/25 01:54:48;;;;;;;71.35;68.28;;;;;;;11.55;100.00;100931.78;5057512;28;20029;-74
2022/10/25 01:57:43;;;;;;;79.88;75.68;;;;;;;11.58;100.00;100928.81;5060248;28;20031;-73
2022/10/25 02:00:17;;;;;;;72.38;69.10;;;;;;;11.63;100.00;100937.13;5060458;28;20048;-74
2022/10/25 02:02:52;;;;;;;74.97;71.07;;;;;;;11.64;100.00;100931.66;5060778;28;20200;-74
2022/10/25 02:05:30;;;;;;;80.15;76.65;;;;;;;11.62;100.00;100932.81;5061137;28;20074;-74
2022/10/25 02:08:14;;;;;;;73.55;69.75;;;;;;;11.61;100.00;100929.34;5058458;28;20477;-72
2022/10/25 02:11:44;;;;;;;76.45;72.82;;;;;;;11.59;100.00;100927.84;5057918;28;20035;-72
2022/10/25 02:14:26;;;;;;;67.38;63.25;;;;;;;11.53;100.00;100938.03;4998652;28;20073;-73
2022/10/25 02:17:10;;;;;;;106.82;102.47;;;;;;;11.49;100.00;100934.03;4999332;28;20124;-74
2022/10/25 02:19:46;;;;;;;66.90;62.95;;;;;;;11.38;100.00;100915.78;5015345;28;20065;-72
2022/10/25 02:22:13;;;;;;;63.75;60.90;;;;;;;11.42;100.00;100927.69;4998096;28;20053;-72
2022/10/25 02:24:43;;;;;;;67.50;64.47;;;;;;;11.31;100.00;100910.28;4997961;28;20592;-73
2022/10/25 02:27:10;;;;;;;66.45;63.47;;;;;;;11.41;100.00;100926.06;4998762;28;20084;-74
2022/10/25 02:29:37;;;;;;;68.22;65.15;;;;;;;11.39;100.00;100928.03;4998644;28;20053;-73
2022/10/25 02:32:03;;;;;;;64.32;61.33;;;;;;;11.31;100.00;100920.84;4999593;28;20038;-73
2022/10/25 02:34:29;;;;;;;65.00;61.53;;;;;;;11.31;100.00;100917.38;4998573;28;20025;-73
2022/10/25 02:36:55;;;;;;;63.25;60.65;;;;;;;11.38;100.00;100926.34;4982667;28;20042;-73
2022/10/25 02:39:25;;;;;;;65.80;63.03;;;;;;;11.43;100.00;100934.66;5014687;28;20037;-73
2022/10/25 02:41:51;;;;;;;64.55;61.65;;;;;;;11.33;100.00;100921.53;4999659;28;20469;-74
2022/10/25 02:44:16;;;;;;;66.25;62.70;;;;;;;11.42;100.00;100938.28;4998533;28;20035;-73
2022/10/25 02:46:41;;;;;;;91.72;87.70;;;;;;;11.44;100.00;100936.31;4998919;28;20030;-73
2022/10/25 02:49:07;;;;;;;68.82;65.95;;;;;;;11.43;100.00;100942.59;5020853;28;20132;-72
2022/10/25 02:51:32;;;;;;;73.70;69.68;;;;;;;11.39;100.00;100938.59;5060131;28;20021;-73
2022/10/25 02:53:58;;;;;;;66.97;64.25;;;;;;;11.40;100.00;100934.13;5059096;28;20036;-74
2022/10/25 02:56:24;;;;;;;69.75;66.95;;;;;;;11.38;100.00;100941.38;5058976;28;20036;-74
2022/10/25 02:58:51;;;;;;;64.57;61.88;;;;;;;11.38;100.00;100936.09;5058668;28;20404;-74
2022/10/25 03:01:19;;;;;;;65.80;62.90;;;;;;;11.36;100.00;100938.88;5057623;28;20147;-74
2022/10/25 03:03:45;;;;;;;71.07;68.10;;;;;;;11.38;100.00;100942.19;5058878;28;20586;-72
2022/10/25 03:06:10;;;;;;;94.90;91.25;;;;;;;11.32;100.00;100937.53;5059329;28;20029;-72
2022/10/25 03:08:38;;;;;;;66.95;64.30;;;;;;;11.44;100.00;100946.06;5059756;28;20025;-72
2022/10/25 03:11:04;;;;;;;72.22;68.63;;;;;;;11.46;100.00;100952.84;5060080;28;20596;-73
2022/10/25 03:13:30;;;;;;;73.10;69.95;;;;;;;11.49;100.00;100955.16;5060317;28;20455;-73
2022/10/25 03:15:56;;;;;;;69.47;66.18;;;;;;;11.54;100.00;100965.31;5060027;28;20523;-73
2022/10/25 03:18:22;;;;;;;69.38;66.50;;;;;;;11.52;100.00;100949.59;5057264;28;20115;-73
2022/10/25 03:20:47;;;;;;;63.03;60.13;;;;;;;11.57;100.00;100957.06;5059730;28;20072;-73
2022/10/25 03:23:13;;;;;;;120.38;114.68;;;;;;;11.66;100.00;100960.59;5059341;28;20107;-74
2022/10/25 03:25:39;;;;;;;70.00;67.10;;;;;;;11.69;100.00;100963.78;5058136;28;20029;-73
2022/10/25 03:28:05;;;;;;;75.80;72.65;;;;;;;11.71;100.00;100960.94;5059082;28;20052;-73
2022/10/25 03:30:30;;;;;;;66.85;63.97;;;;;;;11.71;100.00;100968.88;5059502;28;20108;-73
2022/10/25 03:32:56;;;;;;;71.05;67.25;;;;;;;11.74;100.00;100980.00;5058461;28;20032;-74
2022/10/25 03:35:22;;;;;;;63.97;61.33;;;;;;;11.67;100.00;100962.25;5058172;28;20059;-73
2022/10/25 03:37:48;;;;;;;64.47;61.53;;;;;;;11.68;100.00;100979.78;5059588;28;20058;-73
2022/10/25 03:40:14;;;;;;;68.63;65.82;;;;;;;11.66;100.00;100973.81;5058277;28;20431;-73
2022/10/25 03:42:39;;;;;;;66.45;63.70;;;;;;;11.56;100.00;100965.97;5058706;28;20041;-73
2022/10/25 03:45:05;;;;;;;59.42;57.10;;;;;;;11.62;100.00;100977.75;5042005;28;20055;-73
2022/10/25 03:47:31;;;;;;;59.38;56.60;;;;;;;11.60;100.00;100985.81;5057990;28;20038;-73
2022/10/25 03:49:56;;;;;;;60.17;57.55;;;;;;;11.58;100.00;100992.25;5058713;28;20111;-74
2022/10/25 03:52:21;;;;;;;60.05;57.33;;;;;;;11.58;100.00;100992.25;5057724;28;20063;-73
2022/10/25 03:54:47;;;;;;;66.78;63.78;;;;;;;11.53;100.00;100990.06;5057410;28;20028;-74
2022/10/25 03:57:12;;;;;;;59.67;57.17;;;;;;;11.52;100.00;100993.69;5057245;28;20029;-73
2022/10/25 03:59:37;;;;;;;58.53;55.92;;;;;;;11.51;100.00;100990.22;5060032;28;20036;-73
2022/10/25 04:02:03;;;;;;;59.92;57.15;;;;;;;11.50;100.00;100991.22;5056888;28;20040;-74
2022/10/25 04:04:28;;;;;;;68.15;64.80;;;;;;;11.48;100.00;101006.38;5057809;28;20614;-73
2022/10/25 04:06:54;;;;;;;62.28;59.63;;;;;;;11.46;100.00;101003.06;5060292;28;20593;-74
2022/10/25 04:09:19;;;;;;;63.47;60.88;;;;;;;11.46;100.00;101011.00;5057744;28;20037;-74
2022/10/25 04:11:44;;;;;;;76.97;73.90;;;;;;;11.33;100.00;100992.03;5065093;28;20051;-74
2022/10/25 04:14:10;;;;;;;60.38;57.72;;;;;;;11.44;100.00;101012.94;5056481;28;20431;-74
2022/10/25 04:16:35;;;;;;;63.83;60.58;;;;;;;11.43;100.00;101016.59;5056983;28;20519;-74
2022/10/25 04:19:00;;;;;;;61.15;58.20;;;;;;;11.45;100.00;101022.56;5056859;28;20046;-74
2022/10/25 04:21:26;;;;;;;73.35;70.45;;;;;;;11.48;100.00;101024.88;5057045;28;20409;-74
2022/10/25 04:23:52;;;;;;;64.85;61.60;;;;;;;11.51;100.00;101029.84;5057487;28;20043;-74
2022/10/25 04:26:18;;;;;;;69.65;66.45;;;;;;;11.50;100.00;101025.56;5046787;28;20678;-73
2022/10/25 04:28:49;;;;;;;65.00;62.03;;;;;;;11.55;100.00;101026.94;5057768;28;20072;-73
2022/10/25 04:31:14;;;;;;;63.97;61.38;;;;;;;11.58;100.00;101034.53;5057392;28;20465;-73
2022/10/25 04:33:40;;;;;;;61.00;58.28;;;;;;;11.63;100.00;101037.56;5056698;28;20024;-74
2022/10/25 04:36:05;;;;;;;62.83;60.20;;;;;;;11.62;100.00;101034.09;5055228;28;20463;-74
2022/10/25 04:38:31;;;;;;;74.18;70.63;;;;;;;11.63;100.00;101040.22;5058303;28;20114;-74
2022/10/25 04:40:58;;;;;;;67.47;64.32;;;;;;;11.53;100.00;101027.88;5056431;28;20040;-74
2022/10/25 04:43:25;;;;;;;61.20;58.03;;;;;;;11.53;100.00;101041.09;5057983;28;20865;-74
2022/10/25 04:45:51;;;;;;;60.25;57.63;;;;;;;11.35;100.00;101016.50;5057160;28;20060;-73
2022/10/25 04:48:16;;;;;;;63.92;60.80;;;;;;;11.47;100.00;101054.09;5057040;28;20060;-73
2022/10/25 04:50:42;;;;;;;62.92;60.40;;;;;;;11.42;100.00;101049.28;5057252;28;20025;-74
2022/10/25 04:53:08;;;;;;;60.80;57.85;;;;;;;11.39;100.00;101049.59;5056407;28;20044;-74
2022/10/25 04:55:33;;;;;;;64.28;61.30;;;;;;;11.38;100.00;101049.72;5056458;28;20031;-74
2022/10/25 04:57:59;;;;;;;63.47;60.67;;;;;;;11.35;100.00;101047.41;5057499;28;20392;-74
2022/10/25 05:00:25;;;;;;;60.78;58.28;;;;;;;11.25;100.00;101036.88;5060798;28;20780;-73
2022/10/25 05:02:51;;;;;;;54.50;52.10;;;;;;;11.28;100.00;101052.44;5060797;28;20028;-73
2022/10/25 05:05:17;;;;;;;58.53;55.85;;;;;;;11.21;100.00;101046.91;5059290;28;20029;-74
2022/10/25 05:07:42;;;;;;;65.43;62.80;;;;;;;11.14;100.00;101043.19;5066077;28;20031;-74
2022/10/25 05:10:08;;;;;;;68.10;65.35;;;;;;;11.22;100.00;101055.69;5060256;28;20492;-74
2022/10/25 05:12:34;;;;;;;58.30;55.92;;;;;;;11.17;100.00;101058.78;5060888;28;20161;-74
2022/10/25 05:14:59;;;;;;;62.35;59.60;;;;;;;11.14;100.00;101066.16;5067718;28;20024;-74
2022/10/25 05:17:24;;;;;;;62.40;59.92;;;;;;;11.15;100.00;101068.66;5060073;28;20036;-74
2022/10/25 05:19:50;;;;;;;63.00;60.45;;;;;;;11.06;100.00;101054.53;5060285;28;20035;-73
2022/10/25 05:22:15;;;;;;;65.93;63.00;;;;;;;11.20;100.00;101073.50;5060648;28;20054;-73
2022/10/25 05:24:40;;;;;;;67.63;64.18;;;;;;;11.18;100.00;101059.59;5058304;28;20076;-73
2022/10/25 05:27:06;;;;;;;81.40;78.10;;;;;;;11.23;100.00;101075.81;5042551;28;20056;-73
2022/10/25 05:29:31;;;;;;;72.35;69.00;;;;;;;11.24;100.00;101077.50;5061294;28;20048;-73
2022/10/25 05:31:57;;;;;;;59.92;57.38;;;;;;;11.21;100.00;101083.88;5058714;28;20047;-74
2022/10/25 05:34:22;;;;;;;68.03;65.15;;;;;;;11.18;100.00;101084.19;5064919;28;20041;-74
2022/10/25 05:36:48;;;;;;;66.45;63.78;;;;;;;11.02;100.00;101061.06;5058155;28;20069;-73
2022/10/25 05:39:13;;;;;;;56.63;54.30;;;;;;;11.11;100.00;101081.31;5057502;28;20117;-73
2022/10/25 05:41:38;;;;;;;60.67;57.83;;;;;;;11.06;100.00;101080.94;5057840;28;20063;-73
2022/10/25 05:44:05;;;;;;;63.80;60.60;;;;;;;11.03;100.00;101080.38;5058688;28;20034;-73
2022/10/25 05:46:30;;;;;;;67.22;63.67;;;;;;;11.03;100.00;101081.22;5058752;28;20056;-73
2022/10/25 05:48:57;;;;;;;62.20;59.50;;;;;;;11.02;100.00;101082.22;5059114;28;20051;-73
2022/10/25 05:51:26;;;;;;;68.90;65.97;;;;;;;11.03;100.00;101086.50;5060263;28;20493;-73
2022/10/25 05:53:57;;;;;;;66.40;63.42;;;;;;;11.09;100.00;101088.56;5059781;28;20021;-73
2022/10/25 05:56:26;;;;;;;61.88;59.08;;;;;;;11.18;100.00;101101.88;5056960;28;20036;-73
2022/10/25 05:58:51;;;;;;;73.78;69.20;;;;;;;11.13;100.00;101089.09;5058872;28;20111;-73
2022/10/25 06:01:21;;;;;;;69.97;66.78;;;;;;;11.13;100.00;101086.47;5059186;28;20469;-74
2022/10/25 06:03:47;;;;;;;68.45;65.68;;;;;;;11.22;100.00;101104.06;5058496;28;20029;-73
2022/10/25 06:06:13;;;;;;;66.53;63.15;;;;;;;11.25;100.00;101103.75;5059548;28;20067;-73
2022/10/25 06:08:39;;;;;;;65.32;62.38;;;;;;;11.15;100.00;101083.66;5059043;28;20060;-73
2022/10/25 06:11:11;;;;;;;78.50;74.82;;;;;;;11.33;100.00;101113.59;5058616;28;20032;-74
2022/10/25 06:13:37;;;;;;;63.13;60.05;;;;;;;11.39;100.00;101120.94;5057499;28;20115;-73
2022/10/25 06:16:12;;;;;;;66.30;62.85;;;;;;;11.25;100.00;101090.53;5059391;28;20051;-73
2022/10/25 06:18:38;;;;;;;61.58;58.67;;;;;;;11.44;100.00;101117.84;5057886;28;20107;-74
2022/10/25 06:21:06;;;;;;;65.60;62.55;;;;;;;11.50;100.00;101126.00;5057715;28;20567;-73
2022/10/25 06:23:31;;;;;;;68.30;65.20;;;;;;;11.55;100.00;101122.91;5057955;28;20078;-72
2022/10/25 06:26:02;;;;;;;67.95;64.65;;;;;;;11.53;100.00;101120.41;5065045;28;20028;-72
2022/10/25 06:28:28;;;;;;;67.80;64.90;;;;;;;11.63;100.00;101132.75;5057437;28;20519;-72
2022/10/25 06:31:00;;;;;;;63.17;59.67;;;;;;;11.66;100.00;101130.63;5066065;28;20013;-72
2022/10/25 06:33:25;;;;;;;56.78;54.00;;;;;;;11.57;100.00;101114.84;5058333;28;20029;-73
2022/10/25 06:35:55;;;;;;;61.95;58.70;;;;;;;11.68;100.00;101139.22;5058964;28;20027;-73
2022/10/25 06:38:20;;;;;;;65.70;62.90;;;;;;;11.68;100.00;101141.88;5057376;28;20044;-73
2022/10/25 06:40:46;;;;;;;68.20;63.83;;;;;;;11.72;100.00;101148.53;5057349;28;20012;-73
2022/10/25 06:43:11;;;;;;;61.28;58.50;;;;;;;11.70;100.00;101150.50;5058681;28;20064;-73
2022/10/25 06:45:36;;;;;;;62.88;60.03;;;;;;;11.69;100.00;101151.50;5057235;28;20604;-73
2022/10/25 06:48:02;;;;;;;62.22;58.92;;;;;;;11.71;100.00;101159.25;5058540;28;20626;-73
2022/10/25 06:50:27;;;;;;;72.38;68.72;;;;;;;11.59;100.00;101144.59;5057278;28;20086;-73
2022/10/25 06:52:52;;;;;;;54.47;52.05;;;;;;;11.66;100.00;101167.63;5041521;28;20031;-73
2022/10/25 06:55:18;;;;;;;59.47;56.80;;;;;;;11.65;100.00;101165.97;5057286;28;20127;-73
2022/10/25 06:57:43;;;;;;;63.90;60.83;;;;;;;11.68;100.00;101173.59;5042285;28;20020;-73
2022/10/25 07:00:09;;;;;;;86.28;82.40;;;;;;;11.73;100.00;101183.72;5057202;28;20119;-72
2022/10/25 07:02:34;;;;;;;64.47;61.38;;;;;;;11.69;100.00;101177.94;5058727;28;20098;-73
2022/10/25 07:05:00;;;;;;;58.63;55.13;;;;;;;11.68;100.00;101186.00;5057830;28;20024;-73
2022/10/25 07:07:25;;;;;;;52.75;50.35;;;;;;;11.68;100.00;101191.28;5058024;28;20028;-73
2022/10/25 07:09:50;;;;;;;71.22;68.15;;;;;;;11.69;100.00;101190.28;5056812;28;20111;-73
2022/10/25 07:12:16;;;;;;;58.00;55.13;;;;;;;11.63;100.00;101188.28;5058625;28;20062;-73
2022/10/25 07:14:41;;;;;;;58.30;54.45;;;;;;;11.74;100.00;101198.63;5057874;28;20111;-73
2022/10/25 07:17:07;;;;;;;60.33;57.70;;;;;;;11.77;100.00;101197.50;5057619;28;20083;-73
2022/10/25 07:19:32;;;;;;;58.58;56.20;;;;;;;11.79;100.00;101199.00;5057102;28;20043;-73
2022/10/25 07:21:57;;;;;;;53.83;50.60;;;;;;;11.78;100.00;101207.94;5056159;28;20052;-72
2022/10/25 07:24:23;;;;;;;60.95;58.17;;;;;;;11.81;100.00;101215.56;5056668;28;20119;-72
2022/10/25 07:26:48;;;;;;;55.08;52.22;;;;;;;11.80;100.00;101203.31;5057107;28;20052;-73
2022/10/25 07:29:13;;;;;;;56.83;53.90;;;;;;;11.87;100.00;101214.13;5056816;28;20132;-73
2022/10/25 07:31:42;;;;;;;48.47;46.35;;;;;;;11.93;100.00;101205.63;5057006;28;20032;-73
2022/10/25 07:34:11;;;;;;;57.38;54.80;;;;;;;12.00;100.00;101222.56;5057865;28;20033;-73
2022/10/25 07:36:37;;;;;;;58.35;55.72;;;;;;;12.06;100.00;101226.41;5056726;28;20025;-73
2022/10/25 07:39:02;;;;;;;65.10;61.85;;;;;;;12.18;100.00;101221.75;5057575;28;20502;-73
2022/10/25 07:41:27;;;;;;;60.58;57.40;;;;;;;12.41;100.00;101222.09;5057071;28;20835;-73
2022/10/25 07:43:54;;;;;;;58.58;55.17;;;;;;;12.82;100.00;101225.06;5055188;28;20028;-73
2022/10/25 07:46:20;;;;;;;57.28;54.88;;;;;;;13.04;100.00;101221.88;5056923;28;20061;-73
2022/10/25 07:48:45;;;;;;;50.28;47.80;;;;;;;13.07;100.00;101221.56;5056997;28;20027;-73
2022/10/25 07:51:12;;;;;;;42.22;39.88;;;;;;;12.80;100.00;101192.59;5054783;28;20119;-73
2022/10/25 07:53:38;;;;;;;45.67;43.78;;;;;;;12.98;100.00;101217.22;5056925;28;20240;-73
2022/10/25 07:56:04;;;;;;;38.30;36.67;;;;;;;13.16;100.00;101220.63;5057166;28;20051;-73
2022/10/25 07:58:30;;;;;;;43.50;41.58;;;;;;;13.31;100.00;101225.38;5056636;28;20028;-73
2022/10/25 08:01:00;;;;;;;38.15;36.55;;;;;;;13.42;100.00;101230.41;5055554;28;20025;-73
2022/10/25 08:03:25;;;;;;;34.50;32.97;;;;;;;13.51;100.00;101223.31;5056397;28;20522;-74
2022/10/25 08:05:50;;;;;;;33.53;31.92;;;;;;;13.55;100.00;101230.78;5040309;28;20025;-73
2022/10/25 08:08:16;;;;;;;32.50;31.10;;;;;;;13.47;100.00;101233.38;5056126;28;20111;-74
2022/10/25 08:10:42;;;;;;;34.03;32.42;;;;;;;13.15;100.00;101229.59;5055086;28;20114;-73
2022/10/25 08:13:08;;;;;;;34.85;32.95;;;;;;;13.18;100.00;101229.25;5056530;28;20036;-73
2022/10/25 08:15:35;;;;;;;39.65;37.75;;;;;;;13.17;100.00;101238.19;5046063;28;20551;-74
2022/10/25 08:18:01;;;;;;;38.75;37.00;;;;;;;13.34;100.00;101239.13;5055249;28;20647;-74
2022/10/25 08:20:27;;;;;;;40.95;39.28;;;;;;;13.43;100.00;101240.00;5061852;28;20457;-74
2022/10/25 08:22:57;;;;;;;36.78;35.17;;;;;;;13.45;100.00;101242.50;5054763;28;20032;-74
2022/10/25 08:25:22;;;;;;;31.25;29.75;;;;;;;13.47;100.00;101228.09;5055510;28;20526;-73
2022/10/25 08:27:48;;;;;;;38.58;36.88;;;;;;;13.38;100.00;101229.03;5055861;28;20048;-73
2022/10/25 08:30:13;;;;;;;33.25;31.73;;;;;;;13.54;100.00;101257.44;5054598;28;20469;-74
2022/10/25 08:32:39;;;;;;;37.20;35.53;;;;;;;13.55;100.00;101262.59;5055919;28;20043;-73
2022/10/25 08:35:04;;;;;;;40.13;37.17;;;;;;;13.60;100.00;101258.63;5061822;28;20404;-74
2022/10/25 08:37:30;;;;;;;35.53;33.33;;;;;;;13.67;100.00;101270.25;5062487;28;20704;-73
2022/10/25 08:39:55;;;;;;;51.17;48.53;;;;;;;14.19;100.00;101270.06;5060799;28;20025;-73
2022/10/25 08:42:58;;;;;;;42.13;39.63;;;;;;;14.70;100.00;101249.56;5062743;28;20039;-73
2022/10/25 08:45:33;;;;;;;30.17;28.77;;;;;;;15.41;100.00;101271.00;5026492;28;20032;-72
2022/10/25 08:48:01;;;;;;;39.45;37.65;;;;;;;16.06;100.00;101269.09;5062727;28;20521;-74
2022/10/25 08:50:51;;;;;;;23.30;21.98;;;;;;;16.60;100.00;101266.38;5060842;28;20449;-73
2022/10/25 08:53:26;;;;;;;14.13;12.98;;;;;;;16.17;98.50;101260.69;5061810;28;20116;-73
2022/10/25 08:55:53;;;;;;;10.00;9.10;;;;;;;15.96;98.66;101285.28;5061048;28;20060;-73
2022/10/25 08:58:27;;;;;;;11.25;10.40;;;;;;;16.19;98.85;101287.97;5060274;28;20082;-73
2022/10/25 09:00:53;;;;;;;12.65;11.13;;;;;;;16.14;97.12;101261.88;5061424;28;20025;-75
2022/10/25 09:03:24;;;;;;;41.78;39.78;;;;;;;15.31;100.00;101271.22;5061785;28;20035;-74
2022/10/25 09:06:01;;;;;;;;;;;;;;;16.27;97.54;101297.78;5064464;28;20096;-73
2022/10/25 09:08:56;;;;;;;9.88;9.07;;;;;;;16.77;96.25;101304.38;5061771;28;19908;-74
2022/10/25 09:11:43;;;;;;;18.52;10.27;;;;;;;16.83;93.14;101307.19;5069397;28;20039;-74
2022/10/25 09:14:21;;;;;;;8.30;7.28;;;;;;;17.97;91.34;101306.97;5061719;28;20418;-74
2022/10/25 09:16:52;;;;;;;7.45;6.68;;;;;;;18.57;88.14;101317.44;5069464;28;20032;-74
2022/10/25 09:19:29;;;;;;;6.60;5.40;;;;;;;19.05;83.97;101325.69;5062947;28;20028;-74
2022/10/25 09:22:00;;;;;;;8.23;5.63;;;;;;;18.61;83.56;101329.41;5062355;28;20032;-74
2022/10/25 09:24:48;;;;;;;4.80;4.40;;;;;;;17.30;88.40;101325.75;5060459;28;20021;-74
2022/10/25 09:27:21;;;;;;;9.70;8.90;;;;;;;17.95;87.64;101341.03;5063130;28;20092;-74
2022/10/25 09:29:58;;;;;;;6.82;5.18;;;;;;;17.45;87.90;101324.75;5063330;28;20051;-73
2022/10/25 09:32:33;;;;;;;8.50;6.63;;;;;;;16.59;91.97;101348.16;5062410;28;20020;-73
2022/10/25 09:35:00;;;;;;;10.85;9.73;;;;;;;17.28;94.34;101342.75;5062496;28;20066;-73
2022/10/25 09:37:41;;;;;;;10.90;8.50;;;;;;;17.37;89.21;101337.34;5064000;28;20025;-72
2022/10/25 09:40:14;;;;;;;8.60;8.05;;;;;;;16.51;92.84;101312.75;5063287;28;20114;-73
2022/10/25 09:42:47;;;;;;;10.43;9.60;;;;;;;17.14;91.86;101337.44;5062554;28;20078;-73
2022/10/25 09:45:25;;;;;;;9.95;9.27;;;;;;;16.97;93.90;101342.06;5060224;28;20468;-73
2022/10/25 09:48:17;;;;;;;11.32;10.27;;;;;;;17.00;92.56;101334.50;5059258;28;20035;-72
2022/10/25 09:50:49;;;;;;;11.95;10.90;;;;;;;17.48;92.79;101350.22;5058997;28;21002;-72
2022/10/25 09:53:18;;;;;;;11.07;10.23;;;;;;;16.67;92.45;101357.91;5058936;28;20056;-73
2022/10/25 09:55:59;;;;;;;13.10;12.20;;;;;;;17.21;95.51;101355.16;5058633;28;20033;-73
2022/10/25 09:58:33;;;;;;;12.52;11.65;;;;;;;17.87;89.37;101359.84;5059272;28;20476;-73
2022/10/25 10:01:13;;;;;;;12.57;9.82;;;;;;;17.69;88.97;101352.19;5058480;28;20399;-73
2022/10/25 10:03:40;;;;;;;8.70;7.80;;;;;;;18.07;86.21;101362.75;5058261;28;20020;-72
2022/10/25 10:06:27;;;;;;;6.60;6.07;;;;;;;18.60;84.93;101360.69;5059004;28;20091;-72
2022/10/25 10:08:59;;;;;;;7.10;5.60;;;;;;;19.30;82.09;101361.72;5059332;28;20127;-73
2022/10/25 10:11:25;;;;;;;8.93;4.88;;;;;;;19.11;81.48;101381.13;5059914;28;20096;-73
2022/10/25 10:14:32;;;;;;;9.48;5.82;;;;;;;19.30;81.79;101366.25;5057331;28;20123;-73
2022/10/25 10:16:59;;;;;;;6.72;5.50;;;;;;;18.28;81.96;101364.66;5006194;28;20109;-73
2022/10/25 10:19:28;;;;;;;5.05;4.55;;;;;;;18.13;85.27;101359.34;5022421;28;20034;-72
2022/10/25 10:22:06;;;;;;;7.90;5.60;;;;;;;19.59;84.26;101369.72;4990228;28;20390;-73
2022/10/25 10:24:35;;;;;;;5.40;4.38;;;;;;;20.00;79.21;101361.72;5021408;28;20061;-73
2022/10/25 10:27:12;;;;;;;8.73;4.50;;;;;;;19.92;78.24;101375.28;5006144;28;20088;-73
2022/10/25 10:29:56;;;;;;;6.57;3.85;;;;;;;19.38;78.50;101370.59;5006442;28;20045;-73
2022/10/25 10:32:35;;;;;;;6.32;4.15;;;;;;;18.56;82.08;101374.63;5006866;28;20079;-73
2022/10/25 10:35:02;;;;;;;6.63;4.50;;;;;;;19.10;83.29;101372.28;5005619;28;20585;-73
2022/10/25 10:37:30;;;;;;;8.95;4.65;;;;;;;19.73;78.98;101366.97;5006135;28;20476;-73
2022/10/25 10:40:05;;;;;;;7.85;3.97;;;;;;;20.10;76.64;101364.88;5005698;28;20504;-73
2022/10/25 10:42:36;;;;;;;6.32;3.75;;;;;;;19.87;78.24;101369.69;5005470;28;20073;-73
2022/10/25 10:45:06;;;;;;;7.85;4.22;;;;;;;19.75;76.14;101365.91;5005249;28;20038;-72
2022/10/25 10:47:49;;;;;;;4.18;2.88;;;;;;;19.10;80.21;101371.44;5005899;28;20575;-73
2022/10/25 10:50:23;;;;;;;7.88;4.30;;;;;;;19.72;79.73;101370.66;5017877;28;20044;-73
2022/10/25 10:52:54;;;;;;;7.28;3.65;;;;;;;19.82;77.60;101375.66;5059992;28;20107;-73
2022/10/25 10:55:24;;;;;;;7.57;3.60;;;;;;;19.27;77.32;101356.75;5056100;28;20025;-73
2022/10/25 10:57:52;;;;;;;3.97;3.28;;;;;;;19.21;78.86;101378.94;5064947;28;20054;-72
2022/10/25 11:00:23;;;;;;;6.70;3.80;;;;;;;18.47;81.18;101380.06;5057845;28;20586;-72
2022/10/25 11:02:49;;;;;;;5.60;5.20;;;;;;;19.20;81.73;101382.63;5057197;28;20056;-72
2022/10/25 11:05:20;;;;;;;7.47;4.93;;;;;;;19.69;79.45;101379.09;5056287;28;20065;-72
2022/10/25 11:07:53;;;;;;;6.97;5.05;;;;;;;19.83;77.14;101381.84;5057440;28;20143;-72
2022/10/25 11:10:22;;;;;;;8.40;4.20;;;;;;;19.15;78.49;101384.25;5057213;28;20041;-72
2022/10/25 11:13:08;;;;;;;7.90;4.50;;;;;;;17.98;80.88;101398.59;5058549;28;20025;-72
2022/10/25 11:16:05;;;;;;;7.03;6.50;;;;;;;17.54;86.34;101392.19;5055370;28;20040;-72
2022/10/25 11:19:00;;;;;;;8.20;7.65;;;;;;;17.33;87.54;101381.41;5057702;28;20036;-73
2022/10/25 11:21:35;;;;;;;10.68;10.05;;;;;;;18.12;85.87;101396.91;5058176;28;20024;-74